createdAt,value
2022-12-31T00:00:15.136Z,3.22
2022-12-31T00:02:42.121Z,3.83
2022-12-31T00:05:09.529Z,3.67
2022-12-31T00:10:04.042Z,3.80
2022-12-31T00:12:31.062Z,3.80
2022-12-31T00:14:57.971Z,3.80
2022-12-31T00:17:24.868Z,3.83
2022-12-31T00:19:51.730Z,3.78
2022-12-31T00:22:18.626Z,3.75
2022-12-31T00:24:45.568Z,4.45
2022-12-31T00:27:12.460Z,3.88
2022-12-31T00:29:39.427Z,3.38
2022-12-31T00:32:06.387Z,3.65
2022-12-31T00:34:33.345Z,4.05
2022-12-31T00:37:00.265Z,3.83
2022-12-31T00:39:27.172Z,4.10
2022-12-31T00:41:54.055Z,3.88
2022-12-31T00:44:21.027Z,3.58
2022-12-31T00:46:48.476Z,4.10
2022-12-31T00:49:15.510Z,4.40
2022-12-31T00:51:42.578Z,4.50
2022-12-31T00:54:10.246Z,4.28
2022-12-31T00:56:37.267Z,3.60
2022-12-31T00:59:04.386Z,4.28
2022-12-31T01:01:34.593Z,3.95
2022-12-31T01:04:09.713Z,3.97
2022-12-31T01:06:36.987Z,4.50
2022-12-31T01:09:04.673Z,3.67
2022-12-31T01:11:31.650Z,3.70
2022-12-31T01:14:02.806Z,4.28
2022-12-31T01:16:31.436Z,3.75
2022-12-31T01:19:00.169Z,4.68
2022-12-31T01:21:28.527Z,4.13
2022-12-31T01:23:55.498Z,4.30
2022-12-31T01:26:22.554Z,3.95
2022-12-31T01:28:49.597Z,5.03
2022-12-31T01:31:18.782Z,4.40
2022-12-31T01:33:46.551Z,4.85
2022-12-31T01:36:25.253Z,4.65
2022-12-31T01:38:54.365Z,5.05
2022-12-31T01:41:25.163Z,4.88
2022-12-31T01:43:56.904Z,4.95
2022-12-31T01:46:32.420Z,4.80
2022-12-31T01:49:19.584Z,4.75
2022-12-31T01:52:04.646Z,5.47
2022-12-31T01:54:37.405Z,4.97
2022-12-31T01:57:05.405Z,5.20
2022-12-31T01:59:36.011Z,6.15
2022-12-31T02:02:03.807Z,6.70
2022-12-31T02:04:30.897Z,5.85
2022-12-31T02:07:03.786Z,6.30
2022-12-31T02:09:32.002Z,5.68
2022-12-31T02:11:59.034Z,5.88
2022-12-31T02:14:55.813Z,5.57
2022-12-31T02:17:32.609Z,5.90
2022-12-31T02:20:32.880Z,6.13
2022-12-31T02:23:43.167Z,5.38
2022-12-31T02:26:35.133Z,5.57
2022-12-31T02:29:11.317Z,5.90
2022-12-31T02:31:52.134Z,5.88
2022-12-31T02:34:25.846Z,5.50
2022-12-31T02:36:55.049Z,5.68
2022-12-31T02:39:22.508Z,6.72
2022-12-31T02:41:50.624Z,5.95
2022-12-31T02:44:24.975Z,5.95
2022-12-31T02:47:09.963Z,5.88
2022-12-31T02:49:42.712Z,5.88
2022-12-31T02:52:23.380Z,6.35
2022-12-31T02:55:05.337Z,5.70
2022-12-31T02:57:40.305Z,5.65
2022-12-31T03:00:30.725Z,5.78
2022-12-31T03:03:00.505Z,6.10
2022-12-31T03:05:34.524Z,6.15
2022-12-31T03:08:01.410Z,5.50
2022-12-31T03:10:28.562Z,6.25
2022-12-31T03:12:55.461Z,5.93
2022-12-31T03:15:28.607Z,5.95
2022-12-31T03:18:06.304Z,5.18
2022-12-31T03:20:55.905Z,6.15
2022-12-31T03:23:25.417Z,6.32
2022-12-31T03:25:53.480Z,6.15
2022-12-31T03:28:23.366Z,5.93
2022-12-31T03:30:53.433Z,5.68
2022-12-31T03:33:21.667Z,5.18
2022-12-31T03:35:49.597Z,5.68
2022-12-31T03:38:20.342Z,5.63
2022-12-31T03:40:52.162Z,6.07
2022-12-31T03:43:20.390Z,5.55
2022-12-31T03:45:52.646Z,5.30
2022-12-31T03:48:23.260Z,5.53
2022-12-31T03:50:50.687Z,5.20
2022-12-31T03:53:17.980Z,5.85
2022-12-31T03:55:44.940Z,5.88
2022-12-31T03:58:12.046Z,5.88
2022-12-31T04:00:38.954Z,5.53
2022-12-31T04:03:08.464Z,6.07
2022-12-31T04:05:35.370Z,5.53
2022-12-31T04:08:03.118Z,5.10
2022-12-31T04:10:30.064Z,5.70
2022-12-31T04:12:56.940Z,5.85
2022-12-31T04:15:23.803Z,5.28
2022-12-31T04:17:50.704Z,5.40
2022-12-31T04:20:20.115Z,5.45
2022-12-31T04:22:47.015Z,5.53
2022-12-31T04:25:13.908Z,6.55
2022-12-31T04:27:43.702Z,6.13
2022-12-31T04:30:13.161Z,5.22
2022-12-31T04:32:40.904Z,5.90
2022-12-31T04:35:08.777Z,5.50
2022-12-31T04:37:37.765Z,6.07
2022-12-31T04:40:08.698Z,5.80
2022-12-31T04:45:03.419Z,6.03
2022-12-31T04:47:30.343Z,6.35
2022-12-31T04:49:57.233Z,6.13
2022-12-31T04:52:24.153Z,6.10
2022-12-31T04:54:51.051Z,6.80
2022-12-31T04:57:17.980Z,6.90
2022-12-31T04:59:44.964Z,6.82
2022-12-31T05:02:11.974Z,6.10
2022-12-31T05:04:39.008Z,7.13
2022-12-31T05:07:05.886Z,6.78
2022-12-31T05:09:32.761Z,6.50
2022-12-31T05:11:59.650Z,5.90
2022-12-31T05:14:26.820Z,6.35
2022-12-31T05:16:54.010Z,6.80
2022-12-31T05:19:21.177Z,8.05
2022-12-31T05:22:08.022Z,6.57
2022-12-31T05:24:35.072Z,7.05
2022-12-31T05:27:02.346Z,6.43
2022-12-31T05:29:29.234Z,7.05
2022-12-31T05:31:56.094Z,8.05
2022-12-31T05:34:22.984Z,6.97
2022-12-31T05:36:49.910Z,7.30
2022-12-31T05:39:16.771Z,7.30
2022-12-31T05:41:43.649Z,7.00
2022-12-31T05:44:11.428Z,7.63
2022-12-31T05:46:38.386Z,6.65
2022-12-31T05:49:05.254Z,6.88
2022-12-31T05:51:32.336Z,6.63
2022-12-31T05:53:59.258Z,7.75
2022-12-31T05:56:26.161Z,6.97
2022-12-31T05:58:53.018Z,6.88
2022-12-31T06:01:20.098Z,6.97
2022-12-31T06:03:47.495Z,6.70
2022-12-31T06:06:14.492Z,6.78
2022-12-31T06:08:41.382Z,6.13
2022-12-31T06:11:08.414Z,6.80
2022-12-31T06:13:35.419Z,6.40
2022-12-31T06:16:09.547Z,6.40
2022-12-31T06:18:37.404Z,7.20
2022-12-31T06:21:04.624Z,6.68
2022-12-31T06:23:31.602Z,7.45
2022-12-31T06:26:05.082Z,6.53
2022-12-31T06:28:31.984Z,6.60
2022-12-31T06:31:04.402Z,7.03
2022-12-31T06:33:31.723Z,6.43
2022-12-31T06:36:00.260Z,6.97
2022-12-31T06:38:29.440Z,6.40
2022-12-31T06:40:56.638Z,6.05
2022-12-31T06:43:23.569Z,6.53
2022-12-31T06:45:50.477Z,6.90
2022-12-31T06:48:17.788Z,6.50
2022-12-31T06:50:44.672Z,6.47
2022-12-31T06:53:11.560Z,6.97
2022-12-31T06:55:38.832Z,7.40
2022-12-31T06:58:06.037Z,7.15
2022-12-31T07:00:33.270Z,7.43
2022-12-31T07:03:09.081Z,6.88
2022-12-31T07:05:39.103Z,7.93
2022-12-31T07:08:06.048Z,6.80
2022-12-31T07:10:57.475Z,7.53
2022-12-31T07:13:47.629Z,6.97
2022-12-31T07:16:23.891Z,6.63
2022-12-31T07:19:09.587Z,6.90
2022-12-31T07:21:39.710Z,7.60
2022-12-31T07:24:08.763Z,7.33
2022-12-31T07:27:03.056Z,7.53
2022-12-31T07:29:43.727Z,6.22
2022-12-31T07:32:29.461Z,7.03
2022-12-31T07:35:09.836Z,7.57
2022-12-31T07:37:39.800Z,7.90
2022-12-31T07:40:25.007Z,7.90
2022-12-31T07:43:18.298Z,7.82
2022-12-31T07:45:45.153Z,7.10
2022-12-31T07:48:30.386Z,8.32
2022-12-31T07:50:58.092Z,8.10
2022-12-31T07:53:26.083Z,8.23
2022-12-31T07:56:02.010Z,8.00
2022-12-31T07:58:52.024Z,8.93
2022-12-31T08:01:39.970Z,8.15
2022-12-31T08:04:25.844Z,9.05
2022-12-31T08:07:15.733Z,9.75
2022-12-31T08:10:18.302Z,9.30
2022-12-31T08:12:47.509Z,10.45
2022-12-31T08:15:16.742Z,9.65
2022-12-31T08:17:43.977Z,9.43
2022-12-31T08:20:17.705Z,9.48
2022-12-31T08:22:59.318Z,10.55
2022-12-31T08:25:59.968Z,10.52
2022-12-31T08:29:02.544Z,10.30
2022-12-31T08:31:48.509Z,10.80
2022-12-31T08:34:15.438Z,10.85
2022-12-31T08:36:49.363Z,11.00
2022-12-31T08:39:22.064Z,11.18
2022-12-31T08:41:53.592Z,10.07
2022-12-31T08:45:02.083Z,9.85
2022-12-31T08:47:47.447Z,10.10
2022-12-31T08:50:16.679Z,10.20
2022-12-31T08:52:44.463Z,11.88
2022-12-31T08:55:16.600Z,12.35
2022-12-31T08:58:08.759Z,12.40
2022-12-31T09:00:37.408Z,11.50
2022-12-31T09:03:23.121Z,12.88
2022-12-31T09:06:05.214Z,12.70
2022-12-31T09:09:02.755Z,13.40
2022-12-31T09:11:57.444Z,12.35
2022-12-31T09:14:47.592Z,12.10
2022-12-31T09:17:23.557Z,12.30
2022-12-31T09:19:50.656Z,13.00
2022-12-31T09:22:17.853Z,12.40
2022-12-31T09:24:45.079Z,13.18
2022-12-31T09:27:27.469Z,13.52
2022-12-31T09:30:01.756Z,13.68
2022-12-31T09:32:48.085Z,12.98
2022-12-31T09:35:49.556Z,14.20
2022-12-31T09:38:38.662Z,13.90
2022-12-31T09:41:20.479Z,13.88
2022-12-31T09:43:47.358Z,13.65
2022-12-31T09:46:40.563Z,14.30
2022-12-31T09:49:19.790Z,14.68
2022-12-31T09:52:13.934Z,15.85
2022-12-31T09:54:54.127Z,13.18
2022-12-31T09:57:50.373Z,15.70
2022-12-31T10:00:43.435Z,13.18
2022-12-31T10:03:48.412Z,14.98
2022-12-31T10:06:30.468Z,14.55
2022-12-31T10:09:22.019Z,14.77
2022-12-31T10:12:24.093Z,12.35
2022-12-31T10:15:00.773Z,12.18
2022-12-31T10:18:05.263Z,16.13
2022-12-31T10:20:59.172Z,13.25
2022-12-31T10:23:34.820Z,14.57
2022-12-31T10:26:14.329Z,15.52
2022-12-31T10:29:06.183Z,15.10
2022-12-31T10:31:38.928Z,16.23
2022-12-31T10:34:43.239Z,14.77
2022-12-31T10:37:36.522Z,11.90
2022-12-31T10:40:29.077Z,15.68
2022-12-31T10:43:01.434Z,17.58
2022-12-31T10:45:46.554Z,15.63
2022-12-31T10:48:50.422Z,17.50
2022-12-31T10:51:34.249Z,15.45
2022-12-31T10:54:19.868Z,16.27
2022-12-31T10:56:46.703Z,18.02
2022-12-31T10:59:44.360Z,18.00
2022-12-31T11:02:38.953Z,17.08
2022-12-31T11:05:43.103Z,16.88
2022-12-31T11:08:36.196Z,17.20
2022-12-31T11:11:12.897Z,17.73
2022-12-31T11:13:57.902Z,16.95
2022-12-31T11:16:38.708Z,18.13
2022-12-31T11:19:21.566Z,17.85
2022-12-31T11:22:15.741Z,17.42
2022-12-31T11:24:57.668Z,16.25
2022-12-31T11:28:03.435Z,18.10
2022-12-31T11:31:09.982Z,16.75
2022-12-31T11:34:03.982Z,17.83
2022-12-31T11:36:42.303Z,17.88
2022-12-31T11:39:42.612Z,19.05
2022-12-31T11:42:21.793Z,17.52
2022-12-31T11:45:13.184Z,17.45
2022-12-31T11:48:28.404Z,19.90
2022-12-31T11:50:50.675Z,18.80
2022-12-31T11:53:36.351Z,16.48
2022-12-31T11:56:24.766Z,18.10
2022-12-31T11:58:53.820Z,19.38
2022-12-31T12:01:26.853Z,18.08
2022-12-31T12:03:54.026Z,18.58
2022-12-31T12:06:30.418Z,19.20
2022-12-31T12:09:01.643Z,18.83
2022-12-31T12:11:33.141Z,17.48
2022-12-31T12:14:00.065Z,19.02
2022-12-31T12:16:28.677Z,18.45
2022-12-31T12:19:05.735Z,19.08
2022-12-31T12:21:33.130Z,19.70
2022-12-31T12:24:25.374Z,18.63
2022-12-31T12:26:52.290Z,18.25
2022-12-31T12:29:22.867Z,19.40
2022-12-31T12:32:21.846Z,18.98
2022-12-31T12:34:50.129Z,18.58
2022-12-31T12:37:24.559Z,20.85
2022-12-31T12:40:09.447Z,18.27
2022-12-31T12:42:36.392Z,20.65
2022-12-31T12:45:19.124Z,19.42
2022-12-31T12:47:57.686Z,20.05
2022-12-31T12:50:34.725Z,21.05
2022-12-31T12:53:38.448Z,20.77
2022-12-31T12:56:44.475Z,20.38
2022-12-31T12:59:59.091Z,20.73
2022-12-31T13:02:48.834Z,21.50
2022-12-31T13:05:38.427Z,21.63
2022-12-31T13:08:39.428Z,19.75
2022-12-31T13:11:18.342Z,21.58
2022-12-31T13:14:26.554Z,21.17
2022-12-31T13:16:59.937Z,22.42
2022-12-31T13:19:35.805Z,22.65
2022-12-31T13:22:26.292Z,22.15
2022-12-31T13:25:02.731Z,23.70
2022-12-31T13:27:37.559Z,22.48
2022-12-31T13:30:30.560Z,24.10
2022-12-31T13:33:23.919Z,24.48
2022-12-31T13:35:59.183Z,23.48
2022-12-31T13:38:47.132Z,24.13
2022-12-31T13:41:37.536Z,25.77
2022-12-31T13:44:26.269Z,23.70
2022-12-31T13:46:59.767Z,24.88
2022-12-31T13:49:39.810Z,26.13
2022-12-31T13:52:34.512Z,23.90
2022-12-31T13:55:32.168Z,25.48
2022-12-31T13:58:30.917Z,25.40
2022-12-31T14:01:33.627Z,25.95
2022-12-31T14:04:24.880Z,26.23
2022-12-31T14:07:04.964Z,26.25
2022-12-31T14:09:34.536Z,26.35
2022-12-31T14:12:04.384Z,26.98
2022-12-31T14:14:49.120Z,26.73
2022-12-31T14:17:19.938Z,28.75
2022-12-31T14:19:49.681Z,27.77
2022-12-31T14:22:23.397Z,29.02
2022-12-31T14:24:51.965Z,27.70
2022-12-31T14:27:41.661Z,30.05
2022-12-31T14:30:23.282Z,28.30
2022-12-31T14:33:13.633Z,29.80
2022-12-31T14:35:58.257Z,29.33
2022-12-31T14:39:03.205Z,30.17
2022-12-31T14:41:33.262Z,30.77
2022-12-31T14:44:16.198Z,30.85
2022-12-31T14:47:09.068Z,31.45
2022-12-31T14:50:11.251Z,31.27
2022-12-31T14:53:09.132Z,31.23
2022-12-31T14:55:43.577Z,32.63
2022-12-31T14:58:29.854Z,32.83
2022-12-31T15:01:04.522Z,32.95
2022-12-31T15:03:31.492Z,33.10
2022-12-31T15:06:24.195Z,33.90
2022-12-31T15:09:21.015Z,32.50
2022-12-31T15:12:14.299Z,31.25
2022-12-31T15:15:05.679Z,31.30
2022-12-31T15:17:47.819Z,33.17
2022-12-31T15:20:30.132Z,32.13
2022-12-31T15:22:57.443Z,31.77
2022-12-31T15:25:46.586Z,33.05
2022-12-31T15:28:39.620Z,34.80
2022-12-31T15:31:19.876Z,34.03
2022-12-31T15:33:57.946Z,33.95
2022-12-31T15:36:38.256Z,37.50
2022-12-31T15:39:45.416Z,34.67
2022-12-31T15:42:50.087Z,34.90
2022-12-31T15:45:24.681Z,32.80
2022-12-31T15:47:57.450Z,34.95
2022-12-31T15:50:25.974Z,35.88
2022-12-31T15:52:58.383Z,36.60
2022-12-31T15:55:38.656Z,34.10
2022-12-31T15:58:11.095Z,30.27
2022-12-31T16:00:50.043Z,33.72
2022-12-31T16:03:22.526Z,34.65
2022-12-31T16:05:50.077Z,33.78
2022-12-31T16:08:24.749Z,34.25
2022-12-31T16:10:53.876Z,33.55
2022-12-31T16:13:24.053Z,33.38
2022-12-31T16:16:02.371Z,31.70
2022-12-31T16:18:41.119Z,32.60
2022-12-31T16:21:29.633Z,29.23
2022-12-31T16:23:59.510Z,29.58
2022-12-31T16:26:36.799Z,30.52
2022-12-31T16:29:04.608Z,29.90
2022-12-31T16:31:31.877Z,26.70
2022-12-31T16:34:12.642Z,28.75
2022-12-31T16:36:39.782Z,27.23
2022-12-31T16:39:37.001Z,28.55
2022-12-31T16:42:20.098Z,26.25
2022-12-31T16:44:48.664Z,27.17
2022-12-31T16:47:24.744Z,28.95
2022-12-31T16:50:03.292Z,28.25
2022-12-31T16:52:38.490Z,28.75
2022-12-31T16:55:27.185Z,28.65
2022-12-31T16:58:02.091Z,26.90
2022-12-31T17:00:29.429Z,27.83
2022-12-31T17:03:03.643Z,27.63
2022-12-31T17:05:30.751Z,28.20
2022-12-31T17:07:57.751Z,28.35
2022-12-31T17:10:27.155Z,27.65
2022-12-31T17:13:28.021Z,27.20
2022-12-31T17:15:47.089Z,27.23
2022-12-31T17:18:25.959Z,28.05
2022-12-31T17:20:55.027Z,27.95
2022-12-31T17:23:34.289Z,26.50
2022-12-31T17:26:14.658Z,26.58
2022-12-31T17:28:53.487Z,27.33
2022-12-31T17:31:35.040Z,28.05
2022-12-31T17:34:13.859Z,26.60
2022-12-31T17:37:17.612Z,26.85
2022-12-31T17:39:53.619Z,27.13
2022-12-31T17:42:34.571Z,27.17
2022-12-31T17:45:08.418Z,27.27
2022-12-31T17:47:38.047Z,25.95
2022-12-31T17:50:23.183Z,26.33
2022-12-31T17:52:50.406Z,26.38
2022-12-31T17:55:18.405Z,24.85
2022-12-31T17:57:54.077Z,31.02
2022-12-31T18:00:26.939Z,28.70
2022-12-31T18:02:53.949Z,26.50
2022-12-31T18:05:23.575Z,28.33
2022-12-31T18:07:50.723Z,23.50
2022-12-31T18:10:19.856Z,28.08
2022-12-31T18:12:48.730Z,26.60
2022-12-31T18:15:22.889Z,26.55
2022-12-31T18:17:50.604Z,28.55
2022-12-31T18:20:18.507Z,27.13
2022-12-31T18:22:45.938Z,27.77
2022-12-31T18:25:23.817Z,28.15
2022-12-31T18:27:51.787Z,29.60
2022-12-31T18:30:18.868Z,26.52
2022-12-31T18:32:46.825Z,27.83
2022-12-31T18:35:48.612Z,27.52
2022-12-31T18:38:06.459Z,26.35
2022-12-31T18:40:34.125Z,27.40
2022-12-31T18:43:04.941Z,28.42
2022-12-31T18:45:32.310Z,26.27
2022-12-31T18:47:59.219Z,27.55
2022-12-31T18:50:26.099Z,27.38
2022-12-31T18:52:52.973Z,27.23
2022-12-31T18:55:24.689Z,27.17
2022-12-31T18:57:51.848Z,26.80
2022-12-31T19:00:18.959Z,26.30
2022-12-31T19:02:45.835Z,29.20
2022-12-31T19:05:25.664Z,34.38
2022-12-31T19:07:52.853Z,36.08
2022-12-31T19:10:20.437Z,31.77
2022-12-31T19:12:51.237Z,24.30
2022-12-31T19:15:20.891Z,24.50
2022-12-31T19:17:47.742Z,23.88
2022-12-31T19:20:14.704Z,26.13
2022-12-31T19:22:41.718Z,24.92
2022-12-31T19:25:17.046Z,25.25
2022-12-31T19:27:44.064Z,22.92
2022-12-31T19:30:34.520Z,22.95
2022-12-31T19:33:01.490Z,22.43
2022-12-31T19:35:28.627Z,22.77
2022-12-31T19:37:55.838Z,24.08
2022-12-31T19:40:28.751Z,22.08
2022-12-31T19:42:56.364Z,23.88
2022-12-31T19:45:23.286Z,23.70
2022-12-31T19:47:50.303Z,23.40
2022-12-31T19:50:25.888Z,24.45
2022-12-31T19:52:56.862Z,23.88
2022-12-31T19:55:26.355Z,23.10
2022-12-31T19:57:53.393Z,22.45
2022-12-31T20:00:21.353Z,23.30
2022-12-31T20:02:49.441Z,23.83
2022-12-31T20:05:19.387Z,22.38
2022-12-31T20:07:46.559Z,22.83
2022-12-31T20:10:13.705Z,24.88
2022-12-31T20:12:44.572Z,21.55
2022-12-31T20:17:38.891Z,24.23
2022-12-31T20:20:06.949Z,30.55
2022-12-31T20:22:34.128Z,32.33
2022-12-31T20:25:00.984Z,28.92
2022-12-31T20:27:28.137Z,24.63
2022-12-31T20:29:55.185Z,24.73
2022-12-31T20:32:22.221Z,25.17
2022-12-31T20:34:49.089Z,27.77
2022-12-31T20:37:16.052Z,28.58
2022-12-31T20:39:44.012Z,25.67
2022-12-31T20:42:10.978Z,25.90
2022-12-31T20:44:38.063Z,24.55
2022-12-31T20:47:05.037Z,24.08
2022-12-31T20:50:09.003Z,24.73
2022-12-31T20:52:18.875Z,24.80
2022-12-31T20:54:45.976Z,24.17
2022-12-31T20:57:12.873Z,24.35
2022-12-31T20:59:39.772Z,24.88
2022-12-31T21:02:29.602Z,21.85
2022-12-31T21:04:54.268Z,23.17
2022-12-31T21:07:21.350Z,32.80
2022-12-31T21:09:48.305Z,47.35
2022-12-31T21:12:33.728Z,39.08
2022-12-31T21:15:02.506Z,25.00
2022-12-31T21:17:29.394Z,25.55
2022-12-31T21:19:56.270Z,25.48
2022-12-31T21:22:24.263Z,22.80
2022-12-31T21:24:51.232Z,27.13
2022-12-31T21:27:18.159Z,25.48
2022-12-31T21:30:16.512Z,25.50
2022-12-31T21:32:31.903Z,26.17
2022-12-31T21:35:31.486Z,25.73
2022-12-31T21:37:57.907Z,38.50
2022-12-31T21:40:27.335Z,35.45
2022-12-31T21:42:54.355Z,29.45
2022-12-31T21:45:21.277Z,33.17
2022-12-31T21:48:06.857Z,26.45
2022-12-31T21:50:34.473Z,26.08
2022-12-31T21:53:04.702Z,27.63
2022-12-31T21:55:50.325Z,27.03
2022-12-31T21:58:26.409Z,26.55
2022-12-31T22:01:14.258Z,137.38
2022-12-31T22:03:41.473Z,456.75
2022-12-31T22:06:16.301Z,70.38
2022-12-31T22:08:54.844Z,47.28
2022-12-31T22:11:27.274Z,77.47
2022-12-31T22:13:54.738Z,48.38
2022-12-31T22:16:22.668Z,53.40
2022-12-31T22:18:56.080Z,55.92
2022-12-31T22:21:24.696Z,72.18
2022-12-31T22:23:54.676Z,86.57
2022-12-31T22:26:28.375Z,137.20
2022-12-31T22:28:59.426Z,168.85
2022-12-31T22:31:30.132Z,81.38
2022-12-31T22:33:58.566Z,66.75
2022-12-31T22:36:25.892Z,71.25
2022-12-31T22:38:57.422Z,70.40
2022-12-31T22:41:26.468Z,75.32
2022-12-31T22:44:02.577Z,85.07
2022-12-31T22:46:30.428Z,92.07
2022-12-31T22:48:59.132Z,97.32
2022-12-31T22:51:54.565Z,100.30
2022-12-31T22:54:14.778Z,71.80
2022-12-31T22:56:41.878Z,74.43
2022-12-31T22:59:09.384Z,64.00
2022-12-31T23:01:37.191Z,61.92
2022-12-31T23:04:05.125Z,57.65
2022-12-31T23:06:32.466Z,51.38
2022-12-31T23:09:17.849Z,47.28
2022-12-31T23:11:44.781Z,44.03
2022-12-31T23:14:36.173Z,39.08
2022-12-31T23:20:21.401Z,37.03
2022-12-31T23:23:07.018Z,27.30
2022-12-31T23:25:36.126Z,23.08
2022-12-31T23:28:03.589Z,21.45
2022-12-31T23:30:40.597Z,19.88
2022-12-31T23:33:10.823Z,18.45
2022-12-31T23:35:37.752Z,18.87
2022-12-31T23:38:04.803Z,17.02
2022-12-31T23:40:34.500Z,16.10
2022-12-31T23:43:06.416Z,15.57
2022-12-31T23:45:34.624Z,15.00
2022-12-31T23:48:01.985Z,14.35
2022-12-31T23:50:28.961Z,14.18
2022-12-31T23:52:55.846Z,15.50
2022-12-31T23:55:22.759Z,14.70
2022-12-31T23:57:49.674Z,15.48
